createdAt,value
2023-04-17T00:00:05.013Z,18.30
2023-04-17T00:05:23.493Z,19.10
2023-04-17T00:07:51.253Z,17.80
2023-04-17T00:10:19.018Z,18.20
2023-04-17T00:12:46.773Z,19.20
2023-04-17T00:15:14.534Z,17.90
2023-04-17T00:17:42.365Z,18.60
2023-04-17T00:20:13.748Z,16.00
2023-04-17T00:22:41.420Z,16.40
2023-04-17T00:25:10.716Z,17.20
2023-04-17T00:27:38.520Z,16.00
2023-04-17T00:30:06.557Z,22.30
2023-04-17T00:32:34.395Z,19.20
2023-04-17T00:35:02.221Z,21.00
2023-04-17T00:37:30.047Z,17.10
2023-04-17T00:39:57.710Z,16.20
2023-04-17T00:42:25.758Z,17.40
2023-04-17T00:44:53.447Z,16.50
2023-04-17T00:47:22.844Z,18.20
2023-04-17T00:49:50.607Z,17.10
2023-04-17T00:52:18.272Z,17.70
2023-04-17T00:54:46.038Z,18.30
2023-04-17T00:57:13.770Z,18.00
2023-04-17T00:59:41.464Z,18.60
2023-04-17T01:02:09.334Z,19.60
2023-04-17T01:04:37.092Z,17.80
2023-04-17T01:07:04.752Z,20.10
2023-04-17T01:09:32.521Z,17.00
2023-04-17T01:12:00.178Z,16.30
2023-04-17T01:14:27.848Z,17.40
2023-04-17T01:16:55.532Z,19.80
2023-04-17T01:19:23.371Z,16.90
2023-04-17T01:21:51.128Z,15.80
2023-04-17T01:24:18.792Z,19.00
2023-04-17T01:26:46.862Z,16.60
2023-04-17T01:29:14.526Z,16.70
2023-04-17T01:31:42.183Z,20.00
2023-04-17T01:34:09.848Z,18.60
2023-04-17T01:36:37.515Z,18.90
2023-04-17T01:39:05.275Z,17.10
2023-04-17T01:41:32.937Z,16.70
2023-04-17T01:44:00.909Z,16.20
2023-04-17T01:46:28.627Z,17.50
2023-04-17T01:48:56.435Z,16.80
2023-04-17T01:51:24.096Z,15.20
2023-04-17T01:53:51.860Z,18.00
2023-04-17T01:56:19.522Z,17.30
2023-04-17T01:58:47.192Z,16.30
2023-04-17T02:01:14.868Z,14.50
2023-04-17T02:03:42.985Z,16.90
2023-04-17T02:06:11.296Z,16.50
2023-04-17T02:08:38.958Z,20.00
2023-04-17T02:11:06.647Z,16.10
2023-04-17T02:13:34.384Z,17.90
2023-04-17T02:16:02.167Z,15.40
2023-04-17T02:18:30.115Z,15.30
2023-04-17T02:20:57.777Z,17.70
2023-04-17T02:23:25.640Z,16.60
2023-04-17T02:25:53.304Z,16.20
2023-04-17T02:28:20.965Z,16.60
2023-04-17T02:30:48.734Z,15.70
2023-04-17T02:33:16.604Z,13.80
2023-04-17T02:35:44.261Z,15.50
2023-04-17T02:38:11.940Z,17.30
2023-04-17T02:40:39.682Z,16.20
2023-04-17T02:43:07.345Z,19.30
2023-04-17T02:45:35.032Z,17.70
2023-04-17T02:48:02.713Z,14.20
2023-04-17T02:50:30.538Z,16.00
2023-04-17T02:52:58.305Z,15.70
2023-04-17T02:55:26.077Z,15.10
2023-04-17T02:57:53.830Z,16.80
2023-04-17T03:00:21.598Z,15.90
2023-04-17T03:02:49.507Z,16.70
2023-04-17T03:05:17.543Z,18.30
2023-04-17T03:07:45.497Z,15.00
2023-04-17T03:10:13.679Z,20.10
2023-04-17T03:12:41.440Z,15.20
2023-04-17T03:15:09.182Z,18.00
2023-04-17T03:17:36.982Z,14.60
2023-04-17T03:20:05.350Z,18.90
2023-04-17T03:22:33.330Z,18.30
2023-04-17T03:25:01.098Z,17.00
2023-04-17T03:27:28.847Z,14.60
2023-04-17T03:29:56.713Z,15.50
2023-04-17T03:32:24.451Z,16.20
2023-04-17T03:34:52.244Z,14.90
2023-04-17T03:37:20.007Z,16.00
2023-04-17T03:39:47.772Z,15.30
2023-04-17T03:42:15.636Z,15.20
2023-04-17T03:44:43.329Z,15.50
2023-04-17T03:47:11.534Z,16.10
2023-04-17T03:49:39.442Z,17.80
2023-04-17T03:52:07.205Z,16.10
2023-04-17T03:54:35.947Z,18.80
2023-04-17T03:57:03.760Z,16.20
2023-04-17T03:59:31.756Z,17.10
2023-04-17T04:01:59.810Z,17.20
2023-04-17T04:04:27.924Z,17.50
2023-04-17T04:06:57.943Z,16.30
2023-04-17T04:09:25.953Z,14.40
2023-04-17T04:11:53.715Z,16.80
2023-04-17T04:14:21.473Z,15.40
2023-04-17T04:16:49.189Z,15.70
2023-04-17T04:19:17.337Z,18.30
2023-04-17T04:21:45.388Z,17.00
2023-04-17T04:24:14.395Z,18.80
2023-04-17T04:26:42.650Z,17.30
2023-04-17T04:29:12.148Z,20.50
2023-04-17T04:31:40.890Z,17.10
2023-04-17T04:34:09.916Z,15.90
2023-04-17T04:36:42.142Z,14.60
2023-04-17T04:39:10.312Z,15.10
2023-04-17T04:41:38.584Z,17.30
2023-04-17T04:44:06.323Z,13.50
2023-04-17T04:46:34.008Z,15.40
2023-04-17T04:49:01.781Z,17.50
2023-04-17T04:51:29.920Z,16.60
2023-04-17T04:53:57.586Z,17.90
2023-04-17T04:56:25.352Z,18.40
2023-04-17T04:58:53.109Z,18.70
2023-04-17T05:01:21.234Z,18.40
2023-04-17T05:03:49.102Z,18.20
2023-04-17T05:06:17.225Z,17.90
2023-04-17T05:08:45.398Z,16.20
2023-04-17T05:11:13.169Z,18.90
2023-04-17T05:13:41.042Z,20.10
2023-04-17T05:16:08.836Z,22.10
2023-04-17T05:18:36.554Z,18.10
2023-04-17T05:21:04.220Z,19.10
2023-04-17T05:23:31.985Z,18.90
2023-04-17T05:25:59.655Z,18.40
2023-04-17T05:28:27.517Z,21.10
2023-04-17T05:30:55.176Z,21.00
2023-04-17T05:33:22.838Z,18.90
2023-04-17T05:35:52.916Z,23.20
2023-04-17T05:40:50.232Z,20.00
2023-04-17T05:43:17.988Z,18.00
2023-04-17T05:45:45.925Z,19.80
2023-04-17T05:48:13.616Z,23.70
2023-04-17T05:50:41.380Z,19.20
2023-04-17T05:53:09.053Z,22.90
2023-04-17T05:55:36.705Z,20.70
2023-04-17T05:58:16.851Z,20.60
2023-04-17T06:00:51.177Z,21.20
2023-04-17T06:03:19.479Z,22.20
2023-04-17T06:05:48.445Z,22.60
2023-04-17T06:08:16.521Z,20.80
2023-04-17T06:10:46.126Z,22.30
2023-04-17T06:13:14.040Z,22.60
2023-04-17T06:15:41.872Z,24.70
2023-04-17T06:18:10.100Z,20.60
2023-04-17T06:20:40.032Z,25.00
2023-04-17T06:23:08.223Z,21.30
2023-04-17T06:25:35.912Z,22.70
2023-04-17T06:28:04.070Z,25.00
2023-04-17T06:30:31.847Z,23.60
2023-04-17T06:32:59.634Z,20.70
2023-04-17T06:35:27.455Z,20.00
2023-04-17T06:37:55.423Z,23.00
2023-04-17T06:40:23.106Z,23.40
2023-04-17T06:42:50.856Z,19.20
2023-04-17T06:45:18.510Z,26.40
2023-04-17T06:47:46.653Z,23.30
2023-04-17T06:50:14.656Z,22.40
2023-04-17T06:52:42.315Z,24.70
2023-04-17T06:55:09.977Z,23.50
2023-04-17T06:57:38.469Z,22.20
2023-04-17T07:00:06.106Z,24.00
2023-04-17T07:02:33.888Z,24.50
2023-04-17T07:05:01.794Z,24.10
2023-04-17T07:07:31.047Z,24.60
2023-04-17T07:09:58.716Z,22.70
2023-04-17T07:12:27.598Z,22.50
2023-04-17T07:14:55.257Z,23.40
2023-04-17T07:17:23.360Z,25.20
2023-04-17T07:19:51.094Z,28.60
2023-04-17T07:22:18.862Z,26.00
2023-04-17T07:24:46.521Z,25.90
2023-04-17T07:27:14.149Z,26.60
2023-04-17T07:29:42.051Z,30.30
2023-04-17T07:32:09.708Z,25.80
2023-04-17T07:34:41.573Z,25.80
2023-04-17T07:37:09.438Z,26.50
2023-04-17T07:39:37.108Z,24.20
2023-04-17T07:42:07.528Z,25.70
2023-04-17T07:44:35.190Z,23.40
2023-04-17T07:47:03.008Z,25.70
2023-04-17T07:49:31.228Z,24.40
2023-04-17T07:51:58.993Z,25.00
2023-04-17T07:54:26.764Z,21.50
2023-04-17T07:56:58.511Z,20.90
2023-04-17T08:01:54.031Z,22.90
2023-04-17T08:04:21.940Z,29.80
2023-04-17T08:06:50.803Z,26.80
2023-04-17T08:09:18.460Z,26.00
2023-04-17T08:11:56.195Z,26.40
2023-04-17T08:14:25.599Z,25.10
2023-04-17T08:16:53.487Z,25.40
2023-04-17T08:19:21.197Z,24.70
2023-04-17T08:21:48.957Z,23.00
2023-04-17T08:24:19.224Z,26.00
2023-04-17T08:26:47.593Z,26.90
2023-04-17T08:29:16.036Z,25.00
2023-04-17T08:31:43.921Z,24.30
2023-04-17T08:34:15.080Z,24.40
2023-04-17T08:39:12.743Z,22.60
2023-04-17T08:41:40.700Z,28.50
2023-04-17T08:44:08.355Z,26.60
2023-04-17T08:46:36.167Z,26.30
2023-04-17T08:49:04.606Z,29.00
2023-04-17T08:51:32.876Z,32.50
2023-04-17T08:54:00.541Z,24.10
2023-04-17T08:56:28.175Z,23.30
2023-04-17T08:58:56.065Z,27.80
2023-04-17T09:01:23.957Z,30.80
2023-04-17T09:03:52.368Z,23.60
2023-04-17T09:06:20.491Z,25.00
2023-04-17T09:08:48.153Z,30.00
2023-04-17T09:11:16.014Z,26.10
2023-04-17T09:13:43.881Z,26.60
2023-04-17T09:16:13.126Z,25.70
2023-04-17T09:18:42.788Z,27.60
2023-04-17T09:21:10.456Z,26.40
2023-04-17T09:23:38.214Z,24.20
2023-04-17T09:26:06.089Z,31.70
2023-04-17T09:28:35.684Z,25.20
2023-04-17T09:31:03.370Z,22.60
2023-04-17T09:33:31.629Z,23.20
2023-04-17T09:35:59.393Z,25.50
2023-04-17T09:38:27.152Z,27.70
2023-04-17T09:40:54.818Z,28.80
2023-04-17T09:43:24.017Z,23.50
2023-04-17T09:45:52.499Z,21.90
2023-04-17T09:48:20.259Z,25.50
2023-04-17T09:50:47.924Z,24.40
2023-04-17T09:53:17.326Z,20.60
2023-04-17T09:55:45.187Z,16.40
2023-04-17T09:58:12.853Z,14.80
2023-04-17T10:00:41.253Z,16.80
2023-04-17T10:03:09.369Z,16.60
2023-04-17T10:05:37.370Z,12.70
2023-04-17T10:08:05.033Z,14.30
2023-04-17T10:10:34.247Z,15.90
2023-04-17T10:13:02.193Z,10.10
2023-04-17T10:15:29.862Z,11.50
2023-04-17T10:17:57.881Z,16.00
2023-04-17T10:20:25.694Z,11.90
2023-04-17T10:22:57.052Z,12.20
2023-04-17T10:25:24.814Z,12.70
2023-04-17T10:27:53.594Z,15.10
2023-04-17T10:30:23.267Z,15.70
2023-04-17T10:32:51.595Z,16.00
2023-04-17T10:35:19.857Z,15.50
2023-04-17T10:37:47.622Z,13.30
2023-04-17T10:40:21.354Z,12.60
2023-04-17T10:42:49.293Z,16.70
2023-04-17T10:45:17.262Z,14.30
2023-04-17T10:47:45.676Z,16.70
2023-04-17T10:50:15.081Z,15.30
2023-04-17T10:52:44.970Z,16.00
2023-04-17T10:55:14.588Z,15.00
2023-04-17T10:57:42.328Z,14.70
2023-04-17T11:00:11.852Z,13.60
2023-04-17T11:02:39.666Z,14.70
2023-04-17T11:05:07.886Z,14.40
2023-04-17T11:07:35.948Z,11.40
2023-04-17T11:10:03.606Z,12.00
2023-04-17T11:12:31.269Z,14.80
2023-04-17T11:14:58.931Z,12.40
2023-04-17T11:17:26.738Z,14.40
2023-04-17T11:19:54.459Z,14.00
2023-04-17T11:22:22.224Z,12.20
2023-04-17T11:24:49.886Z,15.60
2023-04-17T11:27:17.547Z,13.90
2023-04-17T11:29:45.209Z,13.60
2023-04-17T11:32:12.979Z,16.30
2023-04-17T11:34:41.206Z,15.60
2023-04-17T11:37:09.218Z,15.50
2023-04-17T11:39:36.882Z,15.20
2023-04-17T11:42:05.554Z,11.80
2023-04-17T11:44:33.432Z,12.10
2023-04-17T11:47:01.196Z,13.60
2023-04-17T11:49:28.961Z,10.90
2023-04-17T11:51:58.992Z,14.20
2023-04-17T11:54:27.952Z,12.60
2023-04-17T11:56:57.167Z,15.40
2023-04-17T11:59:24.831Z,16.80
2023-04-17T12:01:53.418Z,8.10
2023-04-17T12:04:22.285Z,12.20
2023-04-17T12:06:50.167Z,9.80
2023-04-17T12:09:17.847Z,9.70
2023-04-17T12:11:45.908Z,8.60
2023-04-17T12:14:14.239Z,11.70
2023-04-17T12:16:42.322Z,11.30
2023-04-17T12:19:11.757Z,9.10
2023-04-17T12:21:39.420Z,8.50
2023-04-17T12:24:07.185Z,8.00
2023-04-17T12:26:34.857Z,9.60
2023-04-17T12:29:02.514Z,9.00
2023-04-17T12:31:31.121Z,8.90
2023-04-17T12:33:58.855Z,10.80
2023-04-17T12:36:26.857Z,11.50
2023-04-17T12:38:54.690Z,9.70
2023-04-17T12:41:22.375Z,9.90
2023-04-17T12:43:50.013Z,25.40
2023-04-17T12:46:17.939Z,16.70
2023-04-17T12:48:45.750Z,8.30
2023-04-17T12:51:13.613Z,7.20
2023-04-17T12:53:41.272Z,7.10
2023-04-17T12:56:08.937Z,9.60
2023-04-17T12:58:36.600Z,8.30
2023-04-17T13:01:04.498Z,8.90
2023-04-17T13:03:32.378Z,6.60
2023-04-17T13:06:00.302Z,6.40
2023-04-17T13:08:28.063Z,6.40
2023-04-17T13:10:56.560Z,6.70
2023-04-17T13:13:24.205Z,8.10
2023-04-17T13:15:52.072Z,7.90
2023-04-17T13:18:19.834Z,5.90
2023-04-17T13:20:47.496Z,7.80
2023-04-17T13:23:15.261Z,5.90
2023-04-17T13:25:42.954Z,5.80
2023-04-17T13:28:10.704Z,5.10
2023-04-17T13:30:39.836Z,5.30
2023-04-17T13:33:08.013Z,5.80
2023-04-17T13:35:35.961Z,4.90
2023-04-17T13:38:03.895Z,4.90
2023-04-17T13:40:31.655Z,5.80
2023-04-17T13:43:00.523Z,4.30
2023-04-17T13:45:28.426Z,4.70
2023-04-17T13:47:56.232Z,5.20
2023-04-17T13:50:24.051Z,5.70
2023-04-17T13:52:51.705Z,4.60
2023-04-17T13:55:19.469Z,4.90
2023-04-17T13:57:47.231Z,4.50
2023-04-17T14:00:14.898Z,4.70
2023-04-17T14:02:42.877Z,4.10
2023-04-17T14:05:10.943Z,7.50
2023-04-17T14:07:38.904Z,5.40
2023-04-17T14:10:06.873Z,6.40
2023-04-17T14:12:34.645Z,7.90
2023-04-17T14:15:02.404Z,5.80
2023-04-17T14:17:30.184Z,9.40
2023-04-17T14:19:57.929Z,10.30
2023-04-17T14:22:25.589Z,6.60
2023-04-17T14:24:53.255Z,9.10
2023-04-17T14:27:20.925Z,7.90
2023-04-17T14:29:48.688Z,13.60
2023-04-17T14:32:16.438Z,11.60
2023-04-17T14:34:44.105Z,5.30
2023-04-17T14:37:11.765Z,7.40
2023-04-17T14:39:39.426Z,5.60
2023-04-17T14:42:07.192Z,3.90
2023-04-17T14:44:34.862Z,4.50
2023-04-17T14:47:02.577Z,4.50
2023-04-17T14:49:30.687Z,4.70
2023-04-17T14:51:58.383Z,4.00
2023-04-17T14:54:26.006Z,3.70
2023-04-17T14:56:53.985Z,4.60
2023-04-17T14:59:21.846Z,3.40
2023-04-17T15:01:49.525Z,3.60
2023-04-17T15:04:17.737Z,4.10
2023-04-17T15:06:45.959Z,4.30
2023-04-17T15:09:13.911Z,2.90
2023-04-17T15:11:41.796Z,4.00
2023-04-17T15:14:09.575Z,3.50
2023-04-17T15:16:37.356Z,4.00
2023-04-17T15:19:05.455Z,4.40
2023-04-17T15:21:33.279Z,2.80
2023-04-17T15:24:01.139Z,4.90
2023-04-17T15:26:28.894Z,3.40
2023-04-17T15:28:56.553Z,7.00
2023-04-17T15:31:24.224Z,5.50
2023-04-17T15:33:51.980Z,6.70
2023-04-17T15:36:19.706Z,4.90
2023-04-17T15:38:47.409Z,6.90
2023-04-17T15:41:15.172Z,6.70
2023-04-17T15:43:42.932Z,7.10
2023-04-17T15:46:10.625Z,4.90
2023-04-17T15:48:38.466Z,8.60
2023-04-17T15:51:06.227Z,5.90
2023-04-17T15:53:34.117Z,6.80
2023-04-17T15:56:07.283Z,5.40
2023-04-17T15:58:36.071Z,4.50
2023-04-17T16:01:11.559Z,6.50
2023-04-17T16:03:41.174Z,7.10
2023-04-17T16:06:11.357Z,7.20
2023-04-17T16:08:39.110Z,6.50
2023-04-17T16:11:06.771Z,7.50
2023-04-17T16:13:34.436Z,8.40
2023-04-17T16:16:02.325Z,8.40
2023-04-17T16:18:30.077Z,8.80
2023-04-17T16:20:57.824Z,7.70
2023-04-17T16:23:25.588Z,7.60
2023-04-17T16:25:53.762Z,8.00
2023-04-17T16:28:21.426Z,7.80
2023-04-17T16:30:49.290Z,8.40
2023-04-17T16:33:16.952Z,7.70
2023-04-17T16:35:44.733Z,7.70
2023-04-17T16:38:12.402Z,11.30
2023-04-17T16:40:40.265Z,9.10
2023-04-17T16:43:09.237Z,6.10
2023-04-17T16:45:37.423Z,7.00
2023-04-17T16:48:05.465Z,8.90
2023-04-17T16:50:33.352Z,9.50
2023-04-17T16:53:01.011Z,7.60
2023-04-17T16:55:28.774Z,9.50
2023-04-17T16:57:57.588Z,7.70
2023-04-17T17:00:25.635Z,8.40
2023-04-17T17:02:53.401Z,9.90
2023-04-17T17:05:21.683Z,6.90
2023-04-17T17:07:49.439Z,9.80
2023-04-17T17:10:17.211Z,8.40
2023-04-17T17:12:45.067Z,8.60
2023-04-17T17:15:13.045Z,8.00
2023-04-17T17:17:40.834Z,9.50
2023-04-17T17:20:08.568Z,9.70
2023-04-17T17:22:36.232Z,9.20
2023-04-17T17:25:04.094Z,9.70
2023-04-17T17:27:31.753Z,9.10
2023-04-17T17:30:00.514Z,12.80
2023-04-17T17:32:28.681Z,11.40
2023-04-17T17:34:58.533Z,10.50
2023-04-17T17:37:27.628Z,11.10
2023-04-17T17:39:55.392Z,12.10
2023-04-17T17:42:23.157Z,13.80
2023-04-17T17:44:50.818Z,12.90
2023-04-17T17:47:18.585Z,12.60
2023-04-17T17:49:46.352Z,8.40
2023-04-17T17:52:14.111Z,11.10
2023-04-17T17:54:42.899Z,11.20
2023-04-17T17:57:10.635Z,11.80
2023-04-17T17:59:38.362Z,12.80
2023-04-17T18:02:06.232Z,10.70
2023-04-17T18:04:34.328Z,12.10
2023-04-17T18:07:02.226Z,12.60
2023-04-17T18:09:29.896Z,11.80
2023-04-17T18:11:57.553Z,12.30
2023-04-17T18:14:25.215Z,14.30
2023-04-17T18:16:52.884Z,11.20
2023-04-17T18:19:20.666Z,13.80
2023-04-17T18:21:48.613Z,12.00
2023-04-17T18:24:16.288Z,12.30
2023-04-17T18:26:44.036Z,10.80
2023-04-17T18:29:11.711Z,13.50
2023-04-17T18:31:39.491Z,12.20
2023-04-17T18:34:07.327Z,9.40
2023-04-17T18:36:35.094Z,13.70
2023-04-17T18:39:03.378Z,10.60
2023-04-17T18:41:31.143Z,10.40
2023-04-17T18:43:58.796Z,10.30
2023-04-17T18:46:28.416Z,16.30
2023-04-17T18:48:56.478Z,13.00
2023-04-17T18:51:24.236Z,10.80
2023-04-17T18:53:52.008Z,11.10
2023-04-17T18:56:19.693Z,10.60
2023-04-17T18:58:47.429Z,9.60
2023-04-17T19:01:15.550Z,11.90
2023-04-17T19:03:43.472Z,11.90
2023-04-17T19:06:11.133Z,10.50
2023-04-17T19:08:41.558Z,11.60
2023-04-17T19:11:09.219Z,11.50
2023-04-17T19:13:36.991Z,8.80
2023-04-17T19:16:04.715Z,13.80
2023-04-17T19:18:32.613Z,11.40
2023-04-17T19:21:00.379Z,11.30
2023-04-17T19:23:28.142Z,13.00
2023-04-17T19:25:56.621Z,13.10
2023-04-17T19:28:25.606Z,11.30
2023-04-17T19:30:54.300Z,13.80
2023-04-17T19:33:23.755Z,9.60
2023-04-17T19:35:52.799Z,8.40
2023-04-17T19:38:20.674Z,11.40
2023-04-17T19:40:48.428Z,14.10
2023-04-17T19:43:16.096Z,12.90
2023-04-17T19:45:44.129Z,11.80
2023-04-17T19:48:12.033Z,11.70
2023-04-17T19:50:39.702Z,9.60
2023-04-17T19:53:07.349Z,10.00
2023-04-17T19:55:35.113Z,12.80
2023-04-17T19:58:02.741Z,11.40
2023-04-17T20:00:30.435Z,13.00
2023-04-17T20:02:58.272Z,12.10
2023-04-17T20:05:26.373Z,12.20
2023-04-17T20:07:54.444Z,12.20
2023-04-17T20:10:22.423Z,13.30
2023-04-17T20:12:50.078Z,10.70
2023-04-17T20:15:19.987Z,13.30
2023-04-17T20:17:47.917Z,9.40
2023-04-17T20:20:15.844Z,10.40
2023-04-17T20:22:43.595Z,11.60
2023-04-17T20:25:11.353Z,18.60
2023-04-17T20:27:39.121Z,11.90
2023-04-17T20:30:07.098Z,11.00
2023-04-17T20:32:34.792Z,11.00
2023-04-17T20:35:02.514Z,11.60
2023-04-17T20:37:30.280Z,13.10
2023-04-17T20:39:58.043Z,9.80
2023-04-17T20:42:25.705Z,11.30
2023-04-17T20:44:53.773Z,12.10
2023-04-17T20:47:21.500Z,9.80
2023-04-17T20:49:49.309Z,12.90
2023-04-17T20:52:16.925Z,11.10
2023-04-17T20:54:44.631Z,14.00
2023-04-17T20:57:12.289Z,13.80
2023-04-17T20:59:39.956Z,11.10
2023-04-17T21:02:07.737Z,11.40
2023-04-17T21:04:35.592Z,12.00
2023-04-17T21:07:03.649Z,10.70
2023-04-17T21:09:31.310Z,12.00
2023-04-17T21:11:58.982Z,11.60
2023-04-17T21:14:27.558Z,12.40
2023-04-17T21:16:56.654Z,12.00
2023-04-17T21:19:26.162Z,12.40
2023-04-17T21:21:53.923Z,10.50
2023-04-17T21:24:21.687Z,12.70
2023-04-17T21:26:49.765Z,12.60
2023-04-17T21:29:17.837Z,12.40
2023-04-17T21:31:45.598Z,12.50
2023-04-17T21:34:14.105Z,12.20
2023-04-17T21:36:41.941Z,15.60
2023-04-17T21:39:09.913Z,12.30
2023-04-17T21:41:37.572Z,12.00
2023-04-17T21:44:05.859Z,12.00
2023-04-17T21:46:33.612Z,11.50
2023-04-17T21:49:01.478Z,11.40
2023-04-17T21:51:29.143Z,13.50
2023-04-17T21:53:56.804Z,13.50
2023-04-17T21:56:24.577Z,13.30
2023-04-17T21:58:52.431Z,17.10
2023-04-17T22:01:20.447Z,12.10
2023-04-17T22:03:48.274Z,19.90
2023-04-17T22:06:16.036Z,16.70
2023-04-17T22:08:43.798Z,13.20
2023-04-17T22:11:11.574Z,14.50
2023-04-17T22:13:39.332Z,16.40
2023-04-17T22:16:07.100Z,12.80
2023-04-17T22:18:34.845Z,14.00
2023-04-17T22:21:02.518Z,13.60
2023-04-17T22:23:30.711Z,13.80
2023-04-17T22:25:58.361Z,15.80
2023-04-17T22:28:26.015Z,19.30
2023-04-17T22:30:53.685Z,14.50
2023-04-17T22:33:21.463Z,15.10
2023-04-17T22:35:49.209Z,13.10
2023-04-17T22:38:16.821Z,16.90
2023-04-17T22:40:44.527Z,13.20
2023-04-17T22:43:12.209Z,14.20
2023-04-17T22:45:39.963Z,14.80
2023-04-17T22:48:07.786Z,14.20
2023-04-17T22:50:37.907Z,19.20
2023-04-17T22:53:05.907Z,13.40
2023-04-17T22:55:33.686Z,12.60
2023-04-17T22:58:01.516Z,12.60
2023-04-17T23:00:29.304Z,11.90
2023-04-17T23:02:57.085Z,12.80
2023-04-17T23:05:25.052Z,12.80
2023-04-17T23:07:53.008Z,11.30
2023-04-17T23:10:21.079Z,10.60
2023-04-17T23:12:49.356Z,13.00
2023-04-17T23:15:17.217Z,12.90
2023-04-17T23:17:44.874Z,10.40
2023-04-17T23:20:12.949Z,14.10
2023-04-17T23:22:40.678Z,9.60
2023-04-17T23:25:08.472Z,11.90
2023-04-17T23:27:36.239Z,12.60
2023-04-17T23:30:03.903Z,11.40
2023-04-17T23:32:31.599Z,10.90
2023-04-17T23:34:59.327Z,13.60
2023-04-17T23:37:26.991Z,12.80
2023-04-17T23:39:54.687Z,11.70
2023-04-17T23:42:22.418Z,10.90
2023-04-17T23:44:50.200Z,12.40
2023-04-17T23:47:17.959Z,10.10
2023-04-17T23:49:45.712Z,10.80
2023-04-17T23:52:13.374Z,10.40
2023-04-17T23:54:41.134Z,10.60
2023-04-17T23:57:08.799Z,12.10
2023-04-17T23:59:36.562Z,12.60
